Kezdőlap
METAR-TAF:

METAR-TAF

Repülőterek :

Mount Pleasant Municipal Airport

Mount Pleasant, Iowa, Amerikai Egyesült Államok

földrajzi szélesség: 40-56-48N, földrajzi hosszúság: 091-30-40W, magasság: 224 m

Jelenlegi meteorológiai megfigyelések

A jelentés 13 perccel ezelõtt készült, 15:55 UTC
Dél-délkeleti szél 15 kt
Hőmérséklet 14°C
Páratartalom 77%
Légköri nyomás 1016 hPa
Látótávolság: 16.1 km
Szórványos felhőzet 2200 lábon
Szórványos felhőzet 5500 lábon
Borult 6500 lábon

METAR: KMPZ 061555Z AUTO 16015KT 10SM SCT022 SCT055 OVC065 14/10 A3000 RMK AO2

Idő: 11:08 (16:08 UTC)


TAF: hiányzik

Meteorológiai megfigyelések és előrejelzések több, mint 4000 repülőtéren (METAR és TAF jelentéseket).

A térképen piros és sárga pontok jelzik az elérhető meteorológiai állomásokat.

Mozgassa az egeret a pont fölött, hogy megjelenjen az állomás neve.

Azután kattintson az időjárási megfigyelések és előrejelzések megtekintéséhez.

A térkép megváltoztatása: kattintson a fekete keresztel jelölt zöld gombra ráközelítéshez, a vonallal jelölt zöld gombra távolításhoz, vagy a zöld nyilakra a szomszédos térképek eléréséhez.


METAR-TAF: